createdAt,value
2022-10-19T00:00:16.731Z,12.30
2022-10-19T00:14:16.757Z,12.40
2022-10-19T00:28:16.731Z,11.90
2022-10-19T00:42:16.702Z,11.10
2022-10-19T00:56:16.711Z,10.50
2022-10-19T01:10:16.716Z,11.30
2022-10-19T01:24:16.818Z,10.10
2022-10-19T01:38:16.796Z,10.10
2022-10-19T01:52:16.765Z,10.40
2022-10-19T02:06:16.825Z,9.50
2022-10-19T02:20:16.884Z,9.40
2022-10-19T02:34:16.850Z,9.50
2022-10-19T02:48:16.933Z,9.30
2022-10-19T03:02:16.842Z,9.10
2022-10-19T03:16:16.838Z,9.30
2022-10-19T03:30:16.841Z,9.10
2022-10-19T03:44:16.867Z,9.10
2022-10-19T03:58:16.869Z,8.70
2022-10-19T04:12:16.849Z,8.80
2022-10-19T04:26:16.872Z,8.50
2022-10-19T04:40:16.863Z,8.40
2022-10-19T04:54:16.900Z,7.90
2022-10-19T05:08:16.944Z,8.20
2022-10-19T05:22:16.914Z,9.40
2022-10-19T05:37:16.941Z,8.50
2022-10-19T05:52:17.004Z,8.40
2022-10-19T06:07:16.985Z,8.30
2022-10-19T06:22:16.983Z,8.50
2022-10-19T06:37:16.988Z,8.50
2022-10-19T06:52:17.006Z,8.00
2022-10-19T07:07:17.017Z,8.90
2022-10-19T07:22:20.482Z,8.00
2022-10-19T07:37:17.295Z,7.10
2022-10-19T07:52:17.129Z,8.40
2022-10-19T08:07:17.138Z,9.10
2022-10-19T08:22:17.173Z,8.20
2022-10-19T08:37:26.175Z,10.20
2022-10-19T08:52:17.223Z,9.30
2022-10-19T09:07:17.227Z,8.20
2022-10-19T09:22:17.241Z,8.60
2022-10-19T09:37:23.457Z,8.30
2022-10-19T09:52:17.230Z,7.40
2022-10-19T10:07:17.246Z,7.40
2022-10-19T10:22:17.271Z,7.30
2022-10-19T10:37:17.285Z,7.00
2022-10-19T10:52:17.275Z,7.50
2022-10-19T10:54:50.235Z,7.50
2022-10-19T11:09:50.507Z,8.10
2022-10-19T11:25:50.774Z,9.70
2022-10-19T11:41:13.078Z,8.50
2022-10-19T11:55:50.887Z,10.00
2022-10-19T12:10:51.053Z,10.20
2022-10-19T12:25:51.191Z,8.40
2022-10-19T12:40:51.189Z,7.70
2022-10-19T12:55:51.258Z,7.80
2022-10-19T13:10:51.308Z,6.90
2022-10-19T13:25:51.301Z,7.10
2022-10-19T13:40:51.365Z,8.00
2022-10-19T13:55:51.729Z,7.20
2022-10-19T14:11:00.456Z,6.80
2022-10-19T14:25:51.827Z,7.70
2022-10-19T14:40:51.794Z,7.70
2022-10-19T14:55:51.788Z,7.40
2022-10-19T15:10:51.800Z,7.70
2022-10-19T15:25:51.832Z,8.70
2022-10-19T15:40:51.831Z,7.70
2022-10-19T15:55:51.887Z,7.20
2022-10-19T16:10:51.875Z,7.90
2022-10-19T16:25:51.870Z,9.60
2022-10-19T16:40:51.890Z,10.30
2022-10-19T16:55:51.988Z,12.30
2022-10-19T17:09:54.611Z,10.30
2022-10-19T17:23:51.953Z,10.10
2022-10-19T17:37:51.987Z,11.10
2022-10-19T17:51:51.982Z,11.90
2022-10-19T18:05:51.978Z,11.30
2022-10-19T18:19:51.982Z,9.70
2022-10-19T18:33:51.975Z,36.50
2022-10-19T18:47:52.023Z,28.10
2022-10-19T19:01:52.104Z,26.00
2022-10-19T19:15:52.165Z,23.90
2022-10-19T19:29:52.113Z,19.80
2022-10-19T19:43:52.115Z,19.00
2022-10-19T19:57:52.273Z,19.20
2022-10-19T20:11:52.305Z,18.80
2022-10-19T20:25:52.325Z,16.00
2022-10-19T20:39:52.360Z,15.10
2022-10-19T20:53:52.556Z,14.10
2022-10-19T21:07:52.467Z,13.00
2022-10-19T21:21:52.448Z,11.20
2022-10-19T21:35:52.451Z,12.60
2022-10-19T21:49:52.453Z,10.90
2022-10-19T22:03:52.464Z,9.70
2022-10-19T22:17:52.490Z,9.50
2022-10-19T22:31:52.478Z,8.90
2022-10-19T22:45:52.471Z,8.50
2022-10-19T22:59:52.464Z,8.30
2022-10-19T23:13:52.484Z,7.70
2022-10-19T23:27:52.498Z,6.90
2022-10-19T23:41:52.507Z,7.00
2022-10-19T23:55:52.496Z,6.60
